Time;durP1;ratioP1;P1;durP2;ratioP2;P2;SDS_P1;SDS_P2;PMS_P1;PMS_P2;Temp;Humidity;BMP_temperature;BMP_pressure;BME280_temperature;BME280_humidity;BME280_pressure;Samples;Min_cycle;Max_cycle;Signal;HPM_P1;HPM_P2
2023/08/26 00:01:39;;;;;;;12.97;10.80;;;25.00;91.50;;;25.64;57.31;94949.13;5076243;28;20555;-58
2023/08/26 00:04:07;;;;;;;14.80;11.80;;;25.00;91.50;;;25.63;57.78;94952.06;5069332;28;20500;-58
2023/08/26 00:06:35;;;;;;;20.00;12.43;;;24.90;91.60;;;25.61;57.97;94948.75;5069139;28;20619;-60
2023/08/26 00:09:03;;;;;;;12.50;11.20;;;24.90;91.80;;;25.57;58.10;94951.09;5069932;28;20474;-59
2023/08/26 00:11:31;;;;;;;18.50;12.10;;;24.90;92.00;;;25.54;57.60;94951.56;5070329;28;20986;-60
2023/08/26 00:13:58;;;;;;;16.40;11.97;;;24.80;91.90;;;25.52;58.34;94957.19;5069408;28;20474;-56
2023/08/26 00:16:25;;;;;;;18.73;11.13;;;24.90;92.50;;;25.49;57.73;94952.25;5070858;28;20484;-57
2023/08/26 00:18:54;;;;;;;19.63;12.70;;;24.80;92.20;;;25.45;57.98;94955.66;5073294;28;20481;-56
2023/08/26 00:21:22;;;;;;;14.03;12.40;;;24.80;92.50;;;25.40;58.20;94951.75;5067505;28;20798;-59
2023/08/26 00:23:50;;;;;;;18.57;12.80;;;24.70;92.60;;;25.38;58.35;94947.69;5067658;28;21007;-58
2023/08/26 00:26:17;;;;;;;13.27;10.77;;;24.70;92.70;;;25.34;58.17;94950.00;5077004;28;20545;-60
2023/08/26 00:28:46;;;;;;;12.57;11.27;;;24.70;92.90;;;25.31;58.87;94944.25;5074276;28;20540;-56
2023/08/26 00:31:13;;;;;;;16.70;13.10;;;24.60;93.10;;;25.27;58.51;94940.34;5071053;28;20490;-58
2023/08/26 00:33:40;;;;;;;17.40;12.10;;;24.60;92.80;;;25.22;58.44;94946.41;5069974;28;20474;-60
2023/08/26 00:36:07;;;;;;;14.30;12.57;;;24.60;93.00;;;25.17;58.57;94938.22;5071446;28;20450;-60
2023/08/26 00:38:35;;;;;;;22.23;12.63;;;24.60;93.20;;;25.15;59.15;94945.72;5068816;28;20527;-58
2023/08/26 00:41:02;;;;;;;18.03;11.90;;;24.50;93.30;;;25.11;58.95;94942.63;5071350;28;20446;-57
2023/08/26 00:43:29;;;;;;;13.47;11.90;;;24.50;93.20;;;25.06;58.66;94937.94;5073178;28;20896;-59
2023/08/26 00:45:58;;;;;;;17.23;11.80;;;24.40;93.40;;;25.04;59.46;94945.44;5069925;28;20488;-58
2023/08/26 00:48:25;;;;;;;15.20;12.40;;;24.40;93.80;;;25.00;58.75;94943.41;5065647;28;20527;-59
2023/08/26 00:50:53;;;;;;;18.40;12.00;;;24.40;93.80;;;24.97;59.42;94941.19;5068701;28;21498;-60
2023/08/26 00:53:21;;;;;;;15.60;11.50;;;24.30;94.00;;;24.91;59.64;94937.56;5066447;28;20466;-56
2023/08/26 00:55:48;;;;;;;14.83;11.70;;;24.30;94.10;;;24.91;59.05;94934.88;5072841;28;20450;-56
2023/08/26 00:58:15;;;;;;;14.87;11.60;;;24.30;94.20;;;24.91;59.16;94939.41;5068618;28;20585;-58
2023/08/26 01:00:42;;;;;;;16.67;11.90;;;24.30;94.40;;;24.91;59.46;94944.78;5075381;28;20468;-59
2023/08/26 01:03:11;;;;;;;14.67;12.17;;;24.20;94.30;;;24.86;59.88;94948.16;5067652;28;20474;-60
2023/08/26 01:05:38;;;;;;;23.40;13.33;;;24.20;94.40;;;24.81;59.69;94942.66;5079246;28;20441;-57
2023/08/26 01:08:06;;;;;;;13.90;12.40;;;24.20;94.50;;;24.76;59.56;94937.94;5079842;28;20539;-57
2023/08/26 01:10:42;;;;;;;12.90;11.40;;;24.20;94.70;;;24.74;59.96;94939.22;5074176;28;20457;-59
2023/08/26 01:13:12;;;;;;;15.17;12.33;;;24.10;95.00;;;24.72;59.97;94930.56;5074332;28;20465;-56
2023/08/26 01:15:41;;;;;;;19.30;11.87;;;24.10;95.00;;;24.73;60.29;94946.47;5073689;28;20444;-59
2023/08/26 01:18:09;;;;;;;15.93;12.00;;;24.10;95.00;;;24.72;60.21;94950.19;5074005;28;20497;-56
2023/08/26 01:20:37;;;;;;;15.03;11.37;;;24.10;95.00;;;24.71;59.58;94953.97;5076546;28;20970;-58
2023/08/26 01:23:06;;;;;;;15.10;11.73;;;24.10;94.90;;;24.72;59.68;94944.00;5070705;28;20844;-58
2023/08/26 01:25:35;;;;;;;15.70;11.87;;;24.10;95.00;;;24.70;60.19;94944.25;5076041;28;20881;-60
2023/08/26 01:28:02;;;;;;;14.90;12.03;;;24.10;95.10;;;24.69;59.87;94948.81;5069869;28;20559;-58
2023/08/26 01:30:29;;;;;;;14.70;11.17;;;24.00;95.00;;;24.68;59.96;94949.84;5076306;28;20454;-56
2023/08/26 01:33:02;;;;;;;17.17;11.03;;;24.00;95.00;;;24.67;59.57;94950.06;5072200;28;21079;-58
2023/08/26 01:35:37;;;;;;;14.00;11.23;;;24.00;95.10;;;24.63;60.13;94941.63;5075118;28;20449;-59
2023/08/26 01:38:05;;;;;;;16.70;12.07;;;24.00;95.20;;;24.63;59.63;94955.09;5072743;28;20850;-57
2023/08/26 01:40:33;;;;;;;13.13;11.73;;;24.00;95.20;;;24.59;60.26;94953.88;5077430;28;20449;-55
2023/08/26 01:43:00;;;;;;;15.13;12.20;;;24.00;95.10;;;24.57;59.85;94937.16;5071236;28;20903;-57
2023/08/26 01:45:28;;;;;;;17.73;11.50;;;23.90;95.10;;;24.54;59.58;94945.66;5076208;28;20552;-59
2023/08/26 01:47:55;;;;;;;16.27;11.73;;;23.90;95.20;;;24.50;59.69;94947.13;5078850;28;20442;-56
2023/08/26 01:50:22;;;;;;;12.37;11.07;;;23.90;95.30;;;24.48;59.62;94941.16;5076246;28;20456;-59
2023/08/26 01:52:50;;;;;;;14.17;12.60;;;23.90;95.30;;;24.44;60.40;94939.97;5075162;28;20513;-57
2023/08/26 01:55:17;;;;;;;12.53;11.23;;;23.80;95.30;;;24.40;59.98;94938.75;5073938;28;20454;-59
2023/08/26 01:57:45;;;;;;;12.83;10.57;;;23.80;95.40;;;24.36;60.09;94937.59;5068976;28;20477;-59
2023/08/26 02:00:15;;;;;;;15.63;11.60;;;23.70;95.30;;;24.31;59.88;94939.06;5071649;28;20473;-59
2023/08/26 02:02:43;;;;;;;15.20;10.70;;;23.70;95.40;;;24.26;60.34;94941.63;5073629;28;20462;-60
2023/08/26 02:05:10;;;;;;;14.40;11.53;;;23.70;95.40;;;24.23;60.75;94934.00;5082134;28;20453;-60
2023/08/26 02:07:37;;;;;;;15.00;12.03;;;23.60;95.60;;;24.17;60.09;94932.22;5076427;28;20442;-57
2023/08/26 02:10:06;;;;;;;15.57;12.43;;;23.60;95.70;;;24.13;60.33;94933.69;5070081;28;20489;-60
2023/08/26 02:12:33;;;;;;;16.10;11.67;;;23.50;95.50;;;24.09;60.32;94933.31;5071790;28;21048;-59
2023/08/26 02:15:02;;;;;;;15.50;11.60;;;23.50;95.90;;;24.06;60.59;94938.31;5078539;28;20530;-60
2023/08/26 02:17:30;;;;;;;13.63;11.40;;;23.40;96.10;;;24.02;60.68;94929.88;5071250;28;20559;-57
2023/08/26 02:19:57;;;;;;;16.60;11.20;;;23.40;96.20;;;23.98;60.98;94928.66;5070811;28;20466;-56
2023/08/26 02:22:25;;;;;;;13.83;12.40;;;23.40;96.20;;;23.92;61.43;94914.28;5070722;28;21067;-55
2023/08/26 02:24:52;;;;;;;18.60;12.80;;;23.30;96.50;;;23.90;61.30;94915.53;5077766;28;20471;-57
2023/08/26 02:27:19;;;;;;;17.57;12.90;;;23.30;96.70;;;23.86;61.78;94917.84;5071494;28;20573;-58
2023/08/26 02:29:46;;;;;;;13.97;12.50;;;23.30;96.80;;;23.84;61.92;94919.06;5075276;28;20478;-58
2023/08/26 02:32:15;;;;;;;17.80;12.27;;;23.20;96.90;;;23.79;62.31;94917.84;5070745;28;20979;-60
2023/08/26 02:34:44;;;;;;;15.63;13.07;;;23.20;97.00;;;23.77;62.14;94919.13;5074085;28;20972;-57
2023/08/26 02:37:11;;;;;;;14.90;11.80;;;23.20;97.10;;;23.74;61.88;94924.94;5075566;28;20684;-60
2023/08/26 02:39:39;;;;;;;15.07;11.70;;;23.10;97.20;;;23.71;61.67;94920.03;5075523;28;20469;-59
2023/08/26 02:42:07;;;;;;;16.30;12.70;;;23.10;97.40;;;23.69;62.64;94924.81;5069375;28;20457;-59
2023/08/26 02:44:34;;;;;;;13.63;12.23;;;23.10;97.50;;;23.66;62.82;94918.00;5078584;28;21012;-57
2023/08/26 02:47:01;;;;;;;19.00;12.70;;;23.10;97.60;;;23.63;62.24;94910.38;5077327;28;20461;-58
2023/08/26 02:49:30;;;;;;;22.17;12.47;;;23.00;97.70;;;23.61;62.66;94913.28;5073786;28;20965;-59
2023/08/26 02:51:57;;;;;;;17.23;12.77;;;23.00;97.80;;;23.59;62.72;94925.28;5071743;28;20559;-59
2023/08/26 02:54:26;;;;;;;13.93;12.30;;;23.00;97.90;;;23.58;63.13;94924.47;5072952;28;20466;-60
2023/08/26 02:56:53;;;;;;;25.10;13.63;;;22.90;98.00;;;23.57;62.65;94924.69;5074401;28;20537;-59
2023/08/26 02:59:20;;;;;;;16.30;12.60;;;22.90;98.00;;;23.56;62.59;94920.34;5073963;28;20482;-55
2023/08/26 03:01:48;;;;;;;17.27;13.40;;;22.90;98.00;;;23.55;62.57;94918.72;5076033;28;20454;-59
2023/08/26 03:04:15;;;;;;;18.13;12.10;;;22.90;98.00;;;23.53;62.46;94923.47;5072822;28;20901;-58
2023/08/26 03:06:43;;;;;;;16.63;12.90;;;22.90;98.10;;;23.51;63.22;94923.69;5078944;28;20846;-57
2023/08/26 03:09:11;;;;;;;16.50;14.17;;;22.90;98.20;;;23.49;63.09;94920.41;5071186;28;20465;-60
2023/08/26 03:11:38;;;;;;;16.90;12.63;;;22.90;98.20;;;23.47;62.59;94925.19;5071839;28;20525;-56
2023/08/26 03:14:05;;;;;;;13.40;11.90;;;22.90;98.20;;;23.45;63.47;94929.94;5070892;28;20991;-57
2023/08/26 03:16:33;;;;;;;14.67;13.17;;;22.80;98.30;;;23.43;62.53;94929.34;5076398;28;20449;-58
2023/08/26 03:19:00;;;;;;;20.43;12.97;;;22.80;98.30;;;23.41;62.74;94931.44;5071896;28;20475;-58
2023/08/26 03:21:28;;;;;;;18.83;12.07;;;22.80;98.30;;;23.40;62.91;94932.47;5072438;28;20441;-61
2023/08/26 03:23:57;;;;;;;16.10;12.80;;;22.80;98.40;;;23.38;63.23;94931.88;5071928;28;20550;-60
2023/08/26 03:26:24;;;;;;;18.90;12.97;;;22.80;98.40;;;23.34;62.77;94938.69;5069817;28;20466;-58
2023/08/26 03:28:52;;;;;;;16.20;11.23;;;22.80;98.50;;;23.34;63.39;94938.69;5072523;28;20494;-60
2023/08/26 03:31:19;;;;;;;16.23;11.40;;;22.70;98.40;;;23.30;63.42;94940.16;5071435;28;20896;-64
2023/08/26 03:33:46;;;;;;;19.27;13.23;;;22.70;98.40;;;23.28;63.52;94937.69;5068995;28;20548;-60
2023/08/26 03:36:14;;;;;;;18.23;13.90;;;22.70;98.40;;;23.26;63.22;94940.59;5067273;28;20611;-57
2023/08/26 03:38:41;;;;;;;13.47;12.07;;;22.70;98.60;;;23.27;63.69;94953.00;5072274;28;20485;-59
2023/08/26 03:41:10;;;;;;;22.23;13.57;;;22.60;98.60;;;23.25;63.56;94949.72;5067675;28;20458;-59
2023/08/26 03:43:37;;;;;;;18.77;13.40;;;22.70;98.60;;;23.26;62.95;94961.25;5068996;28;20484;-56
2023/08/26 03:46:04;;;;;;;18.03;11.80;;;22.70;98.60;;;23.24;63.55;94955.28;5074507;28;20879;-57
2023/08/26 03:48:31;;;;;;;15.10;12.20;;;22.70;98.80;;;23.21;63.69;94956.53;5071554;28;20479;-58
2023/08/26 03:50:59;;;;;;;17.57;12.63;;;22.70;98.70;;;23.21;63.73;94961.09;5086394;28;20443;-60
2023/08/26 03:53:27;;;;;;;16.70;11.73;;;22.60;98.80;;;23.19;63.67;94965.84;5070921;28;21033;-58
2023/08/26 03:55:54;;;;;;;21.30;12.83;;;22.60;98.80;;;23.18;62.96;94961.53;5073928;28;20995;-59
2023/08/26 03:58:23;;;;;;;14.33;11.63;;;22.60;98.80;;;23.17;63.81;94963.38;5069179;28;20481;-57
2023/08/26 04:00:50;;;;;;;19.47;11.87;;;22.60;99.20;;;23.17;63.65;94967.91;5070846;28;20513;-59
2023/08/26 04:03:18;;;;;;;14.90;12.40;;;22.60;98.80;;;23.15;63.31;94960.09;5072565;28;20495;-59
2023/08/26 04:05:45;;;;;;;17.83;13.77;;;22.60;99.00;;;23.14;63.95;94960.31;5077245;28;20454;-59
2023/08/26 04:08:12;;;;;;;19.30;12.50;;;22.60;98.90;;;23.14;63.59;94966.47;5068870;28;20501;-58
2023/08/26 04:10:39;;;;;;;14.20;12.73;;;22.60;99.00;;;23.15;63.28;94960.09;5071602;28;20967;-60
2023/08/26 04:13:23;;;;;;;15.27;12.30;;;22.60;99.00;;;23.15;63.59;94965.44;5069458;28;21034;-59
2023/08/26 04:15:52;;;;;;;18.93;12.03;;;22.60;99.20;;;23.15;63.93;94965.44;5068365;28;20541;-58
2023/08/26 04:18:20;;;;;;;13.27;11.90;;;22.60;99.20;;;23.16;63.55;94967.09;5066101;28;20482;-58
2023/08/26 04:20:47;;;;;;;15.00;11.73;;;22.60;99.10;;;23.15;63.94;94964.63;5066110;28;20454;-57
2023/08/26 04:23:14;;;;;;;18.33;13.13;;;22.60;99.20;;;23.18;63.77;94973.06;5069712;28;20474;-58
2023/08/26 04:25:42;;;;;;;28.80;13.30;;;22.60;99.30;;;23.18;63.83;94970.38;5073805;28;20457;-59
2023/08/26 04:28:09;;;;;;;17.97;12.57;;;22.60;99.30;;;23.20;63.37;94968.31;5068114;28;20479;-57
2023/08/26 04:30:38;;;;;;;15.73;12.10;;;22.60;99.20;;;23.23;63.36;94972.41;5071169;28;20459;-60
2023/08/26 04:33:05;;;;;;;18.87;12.40;;;22.60;99.30;;;23.25;64.02;94971.19;5070061;28;20562;-60
2023/08/26 04:35:32;;;;;;;15.77;13.23;;;22.60;99.30;;;23.29;63.90;94986.84;5069218;28;20462;-60
2023/08/26 04:38:00;;;;;;;15.87;13.00;;;22.70;99.40;;;23.31;63.80;94980.22;5073384;28;20490;-56
2023/08/26 04:40:27;;;;;;;18.00;13.17;;;22.70;99.40;;;23.34;64.29;94979.78;5071393;28;20466;-59
2023/08/26 04:42:54;;;;;;;13.93;12.30;;;22.80;99.50;;;23.36;64.13;94976.88;5068217;28;20535;-59
2023/08/26 04:45:22;;;;;;;23.57;13.30;;;22.70;99.40;;;23.37;64.21;94976.66;5070345;28;20461;-61
2023/08/26 04:47:51;;;;;;;13.20;11.87;;;22.80;99.40;;;23.44;63.51;94976.63;5071633;28;20457;-60
2023/08/26 04:50:18;;;;;;;21.43;13.27;;;22.80;99.30;;;23.53;63.32;94985.22;5071080;28;20463;-57
2023/08/26 04:52:45;;;;;;;19.57;12.73;;;22.90;99.30;;;23.58;63.17;94990.78;5067552;28;20490;-58
2023/08/26 04:55:13;;;;;;;18.53;13.83;;;23.00;99.20;;;23.63;63.55;94989.06;5067939;28;20458;-58
2023/08/26 04:57:40;;;;;;;18.80;12.00;;;23.00;99.20;;;23.66;63.43;94987.81;5068565;28;20458;-57
2023/08/26 05:00:10;;;;;;;23.30;11.90;;;23.00;99.00;;;23.70;63.56;94978.28;5069080;28;20457;-59
2023/08/26 05:02:38;;;;;;;18.53;11.87;;;23.10;99.00;;;23.75;63.39;94977.59;5075499;28;20466;-57
2023/08/26 05:05:08;;;;;;;13.93;12.23;;;23.10;98.90;;;23.81;63.25;94982.09;5071624;28;20453;-57
2023/08/26 05:07:35;;;;;;;15.87;11.93;;;23.20;98.90;;;23.87;62.59;94978.56;5068895;28;20458;-60
2023/08/26 05:10:03;;;;;;;17.67;12.37;;;23.30;98.80;;;23.94;62.89;94976.66;5069180;28;20926;-57
2023/08/26 05:12:30;;;;;;;21.10;12.73;;;23.30;98.70;;;24.01;62.50;94984.66;5071568;28;20513;-57
2023/08/26 05:14:58;;;;;;;22.10;13.97;;;23.40;98.70;;;24.07;62.86;94983.75;5072209;28;20581;-60
2023/08/26 05:17:25;;;;;;;20.70;12.23;;;23.40;98.60;;;24.14;62.02;94981.03;5070517;28;20885;-58
2023/08/26 05:19:52;;;;;;;13.37;11.77;;;23.50;98.60;;;24.27;62.29;94988.94;5069155;28;20543;-59
2023/08/26 05:22:22;;;;;;;20.00;13.17;;;23.60;98.40;;;24.40;61.69;94987.16;5068216;28;20888;-60
2023/08/26 05:24:49;;;;;;;16.53;12.30;;;23.70;98.40;;;24.49;61.80;94985.81;5073117;28;20959;-58
2023/08/26 05:27:16;;;;;;;22.77;13.10;;;23.80;98.10;;;24.56;61.12;94991.16;5071328;28;20461;-61
2023/08/26 05:29:44;;;;;;;19.00;13.00;;;23.90;97.90;;;24.62;61.56;94993.78;5066217;28;20505;-58
2023/08/26 05:32:11;;;;;;;17.60;13.13;;;24.00;97.80;;;24.70;60.90;94988.09;5070308;28;20840;-58
2023/08/26 05:34:38;;;;;;;22.47;13.10;;;24.10;97.90;;;24.78;61.11;94980.75;5070958;28;21142;-58
2023/08/26 05:37:06;;;;;;;13.50;10.73;;;24.20;97.70;;;24.91;60.60;94986.00;5074152;28;20828;-57
2023/08/26 05:39:34;;;;;;;25.33;13.20;;;24.20;97.60;;;25.10;60.53;94991.31;5069763;28;20474;-59
2023/08/26 05:42:02;;;;;;;24.30;12.53;;;24.40;97.40;;;25.30;59.87;94986.53;5073179;28;20517;-59
2023/08/26 05:44:29;;;;;;;35.87;12.30;;;24.60;97.20;;;25.50;59.59;94993.47;5069412;28;20782;-56
2023/08/26 05:46:56;;;;;;;38.83;14.50;;;24.70;96.80;;;25.70;59.10;94991.31;5073271;28;20958;-60
2023/08/26 05:49:23;;;;;;;27.00;12.50;;;24.90;96.50;;;25.91;58.74;94994.50;5069967;28;20481;-60
2023/08/26 05:51:51;;;;;;;25.73;12.10;;;25.10;96.30;;;26.10;58.31;94989.84;5072472;28;20533;-60
2023/08/26 05:54:18;;;;;;;21.60;12.60;;;25.30;95.70;;;26.34;57.71;94997.94;5072607;28;20509;-58
2023/08/26 05:56:46;;;;;;;16.23;12.20;;;25.50;95.30;;;26.55;57.29;94994.63;5069407;28;20465;-58
2023/08/26 05:59:14;;;;;;;20.57;12.77;;;25.70;94.90;;;26.77;56.98;94988.63;5072760;28;20562;-57
2023/08/26 06:01:41;;;;;;;18.83;12.93;;;26.00;94.50;;;26.98;56.43;94992.56;5078235;28;20454;-57
2023/08/26 06:04:08;;;;;;;17.07;12.83;;;26.20;94.00;;;27.22;56.12;94989.78;5074577;28;20530;-58
2023/08/26 06:06:36;;;;;;;19.83;13.70;;;26.40;93.60;;;27.41;55.68;94993.16;5076401;28;20442;-60
2023/08/26 06:09:03;;;;;;;17.70;13.43;;;26.60;93.10;;;27.61;55.26;94993.50;5073575;28;20469;-59
2023/08/26 06:11:31;;;;;;;15.80;13.83;;;26.80;92.50;;;27.81;54.23;94997.59;5068504;28;20890;-59
2023/08/26 06:13:59;;;;;;;14.33;12.87;;;27.00;92.00;;;27.98;53.93;94993.06;5073014;28;20491;-57
2023/08/26 06:16:27;;;;;;;18.40;13.83;;;27.20;91.40;;;28.08;53.59;94990.50;5072583;28;20455;-60
2023/08/26 06:18:54;;;;;;;17.17;14.50;;;27.30;91.00;;;28.20;52.98;94993.13;5075968;28;20894;-60
2023/08/26 06:21:21;;;;;;;25.27;13.60;;;27.40;90.60;;;28.31;53.45;94985.16;5074049;28;20441;-57
2023/08/26 06:23:49;;;;;;;27.23;14.40;;;27.50;90.20;;;28.39;52.47;94990.13;5073559;28;20485;-58
2023/08/26 06:26:16;;;;;;;20.77;13.93;;;27.60;89.70;;;28.53;52.67;94987.91;5071675;28;20507;-60
2023/08/26 06:28:44;;;;;;;17.67;13.90;;;27.70;89.20;;;28.72;51.86;94993.84;5075345;28;20481;-57
2023/08/26 06:31:13;;;;;;;21.33;14.07;;;27.80;88.40;;;28.92;51.43;94996.84;5069966;28;20542;-58
2023/08/26 06:33:40;;;;;;;18.13;14.00;;;28.00;87.50;;;29.13;51.30;95000.59;5080220;28;20542;-59
2023/08/26 06:36:08;;;;;;;14.73;12.10;;;28.30;86.70;;;29.36;51.39;95006.84;5078409;28;20962;-60
2023/08/26 06:38:36;;;;;;;21.87;13.13;;;28.50;85.70;;;29.59;50.97;95004.88;5078357;28;21015;-60
2023/08/26 06:41:03;;;;;;;17.07;12.10;;;28.70;84.70;;;29.83;49.95;95005.41;5071373;28;20737;-60
2023/08/26 06:43:30;;;;;;;17.30;11.47;;;28.90;83.20;;;29.99;49.15;95009.06;5070796;28;20586;-60
2023/08/26 06:45:58;;;;;;;19.63;11.67;;;29.10;81.90;;;30.17;49.36;95016.00;5075262;28;20455;-61
2023/08/26 06:48:27;;;;;;;14.10;10.60;;;29.30;82.00;;;30.37;48.75;95010.72;5070316;28;20220;-56
2023/08/26 06:50:54;;;;;;;12.93;11.13;;;29.50;80.60;;;30.54;48.21;95009.78;5071865;28;20207;-57
2023/08/26 06:53:22;;;;;;;18.40;11.57;;;29.70;79.10;;;30.64;48.13;95011.72;5073479;28;20244;-60
2023/08/26 06:55:50;;;;;;;25.83;11.37;;;29.80;77.80;;;30.76;47.48;95009.59;5072747;28;20201;-59
2023/08/26 06:58:18;;;;;;;13.43;11.10;;;29.90;77.30;;;30.93;46.89;94999.34;5073050;28;20223;-57
2023/08/26 07:00:45;;;;;;;15.47;10.77;;;30.10;76.70;;;31.10;46.89;95012.78;5069078;28;20288;-61
2023/08/26 07:03:12;;;;;;;15.47;11.23;;;30.20;75.90;;;31.19;46.02;95006.84;5071509;28;20219;-60
2023/08/26 07:05:43;;;;;;;18.83;12.37;;;30.30;74.50;;;31.26;45.86;95005.50;5075262;28;20626;-58
2023/08/26 07:08:11;;;;;;;17.73;10.90;;;30.40;74.10;;;31.40;45.81;95005.81;5071649;28;20255;-57
2023/08/26 07:10:38;;;;;;;19.17;11.23;;;30.60;73.50;;;31.58;45.81;95007.22;5078402;28;20199;-61
2023/08/26 07:13:05;;;;;;;15.13;10.40;;;30.70;73.10;;;31.81;45.66;95008.63;5069553;28;20301;-61
2023/08/26 07:15:33;;;;;;;13.70;10.93;;;30.90;73.00;;;32.09;44.94;95009.22;5074446;28;20207;-60
2023/08/26 07:18:00;;;;;;;12.07;10.63;;;31.10;72.10;;;32.37;44.89;95009.75;5069315;28;20647;-61
2023/08/26 07:20:27;;;;;;;14.25;9.60;;;31.40;70.90;;;32.62;43.82;95005.34;5073168;28;20203;-61
2023/08/26 07:22:56;;;;;;;17.90;10.40;;;31.60;70.10;;;32.93;43.52;95008.00;5071202;28;20562;-61
2023/08/26 07:25:23;;;;;;;17.40;9.98;;;32.00;68.90;;;33.11;42.65;95010.13;5072859;28;20254;-60
2023/08/26 07:27:50;;;;;;;14.32;10.88;;;32.20;67.60;;;33.19;42.50;95008.75;5070210;28;20207;-56
2023/08/26 07:30:17;;;;;;;14.80;11.40;;;32.30;66.50;;;33.21;42.20;95001.91;5067117;28;20272;-58
2023/08/26 07:32:45;;;;;;;21.02;11.23;;;32.30;65.90;;;33.32;42.11;95002.66;5066778;28;20200;-61
2023/08/26 07:35:12;;;;;;;23.92;12.30;;;32.40;65.70;;;33.45;41.25;95001.25;5075859;28;20212;-58
2023/08/26 07:37:39;;;;;;;15.02;9.82;;;32.50;64.90;;;33.48;41.15;95000.69;5070817;28;20231;-61
2023/08/26 07:40:14;;;;;;;20.05;12.05;;;32.60;64.50;;;33.55;41.21;94997.63;5070392;28;20216;-60
2023/08/26 07:42:42;;;;;;;15.15;10.35;;;32.70;63.90;;;33.66;40.96;94998.38;5072097;28;20202;-59
2023/08/26 07:45:10;;;;;;;19.02;10.75;;;32.80;64.10;;;33.99;40.97;94996.00;5070399;28;20199;-56
2023/08/26 07:47:38;;;;;;;20.00;9.55;;;33.00;64.00;;;34.40;40.70;95001.94;5066083;28;20207;-61
2023/08/26 07:50:06;;;;;;;15.90;10.30;;;33.40;63.20;;;34.78;40.06;94998.56;5071699;28;20669;-57
2023/08/26 07:52:33;;;;;;;12.25;9.38;;;33.80;61.70;;;34.94;38.85;94994.56;5069255;28;20204;-56
2023/08/26 07:55:01;;;;;;;11.02;9.10;;;34.00;60.20;;;35.00;39.34;94992.59;5066193;28;20236;-59
2023/08/26 07:57:29;;;;;;;57.22;12.70;;;34.10;59.60;;;35.08;37.95;94986.47;5070447;28;20695;-57
2023/08/26 07:59:56;;;;;;;22.00;11.70;;;34.20;59.10;;;35.24;38.71;94984.34;5067169;28;20224;-57
2023/08/26 08:02:24;;;;;;;13.95;9.55;;;34.30;59.10;;;35.59;38.30;94993.22;5070532;28;20207;-60
2023/08/26 08:04:51;;;;;;;14.70;9.00;;;34.60;59.30;;;36.09;37.35;94990.00;5069436;28;20208;-60
2023/08/26 08:07:18;;;;;;;21.17;9.50;;;35.00;58.40;;;36.44;37.13;94987.81;5070315;28;20200;-59
2023/08/26 08:09:45;;;;;;;12.43;9.40;;;35.50;57.30;;;36.68;35.74;94984.06;5069704;28;20224;-58
2023/08/26 08:12:14;;;;;;;10.40;9.32;;;35.90;55.60;;;36.91;35.94;94979.53;5070996;28;20725;-60
2023/08/26 08:14:43;;;;;;;20.98;9.02;;;36.20;55.50;;;37.09;35.30;94989.59;5073459;28;20247;-59
2023/08/26 08:17:10;;;;;;;12.10;8.77;;;36.40;54.80;;;37.25;35.40;94976.38;5071824;28;20276;-57
2023/08/26 08:19:42;;;;;;;22.15;9.60;;;36.60;54.40;;;37.60;35.06;94975.91;5068731;28;20687;-59
2023/08/26 08:22:10;;;;;;;13.32;10.05;;;37.00;54.10;;;37.94;32.68;94975.41;5072357;28;20195;-57
2023/08/26 08:24:37;;;;;;;9.27;8.38;;;37.30;50.80;;;38.14;31.98;94965.03;5072979;28;20822;-59
2023/08/26 08:27:05;;;;;;;14.30;10.70;;;37.50;49.80;;;38.02;31.97;94973.88;5072245;28;20195;-59
2023/08/26 08:29:32;;;;;;;12.32;8.85;;;37.50;49.80;;;37.59;33.50;94968.81;5068944;28;20314;-59
2023/08/26 08:32:01;;;;;;;11.02;9.23;;;37.30;50.20;;;37.43;32.73;94962.84;5074141;28;20207;-61
2023/08/26 08:34:28;;;;;;;18.73;8.93;;;37.10;50.30;;;37.33;33.00;94966.63;5067987;28;20238;-58
2023/08/26 08:36:56;;;;;;;9.82;8.68;;;36.90;50.50;;;37.39;33.10;94961.84;5073433;28;20660;-59
2023/08/26 08:39:23;;;;;;;17.85;8.90;;;36.80;50.70;;;37.66;33.48;94963.69;5069709;28;20220;-58
2023/08/26 08:41:50;;;;;;;17.73;8.70;;;36.90;51.10;;;37.75;32.84;94966.53;5072746;28;20207;-58
2023/08/26 08:44:18;;;;;;;12.52;9.45;;;37.00;50.20;;;37.74;32.14;94968.47;5069702;28;20236;-59
2023/08/26 08:46:46;;;;;;;11.73;8.55;;;36.90;49.40;;;37.90;32.05;94959.88;5079730;28;20649;-57
2023/08/26 08:49:14;;;;;;;9.88;7.75;;;37.10;49.60;;;37.87;31.60;94963.25;5069484;28;20310;-59
2023/08/26 08:51:42;;;;;;;15.15;7.80;;;37.10;48.70;;;37.67;31.17;94960.63;5070093;28;20212;-58
2023/08/26 08:54:09;;;;;;;10.10;8.30;;;36.90;48.70;;;37.59;31.86;94961.38;5073443;28;20353;-58
2023/08/26 08:56:36;;;;;;;16.88;8.93;;;36.80;49.40;;;37.58;32.64;94951.50;5070862;28;20208;-60
2023/08/26 08:59:04;;;;;;;13.48;7.93;;;36.80;50.10;;;37.94;32.68;94947.97;5072139;28;20215;-58
2023/08/26 09:01:31;;;;;;;9.88;7.32;;;37.00;50.30;;;38.24;32.14;94956.56;5071581;28;20208;-56
2023/08/26 09:03:59;;;;;;;10.20;8.15;;;37.30;49.70;;;38.39;32.11;94958.09;5071239;28;20281;-62
2023/08/26 09:06:28;;;;;;;12.65;9.07;;;37.40;49.70;;;38.46;31.54;94954.91;5073573;28;20208;-60
2023/08/26 09:08:55;;;;;;;10.20;9.18;;;37.50;48.80;;;38.46;31.56;94946.66;5070764;28;20249;-58
2023/08/26 09:11:22;;;;;;;14.82;9.38;;;37.50;48.70;;;38.38;31.49;94948.25;5068823;28;20569;-59
2023/08/26 09:13:50;;;;;;;15.43;9.82;;;37.50;48.80;;;38.34;31.55;94945.28;5074829;28;20672;-60
2023/08/26 09:16:26;;;;;;;13.15;8.88;;;37.50;48.80;;;38.31;31.94;94939.63;5067359;28;20204;-58
2023/08/26 09:18:56;;;;;;;10.77;7.60;;;37.40;48.80;;;38.29;31.59;94936.41;5074444;28;20231;-56
2023/08/26 09:21:23;;;;;;;12.40;7.65;;;37.40;48.80;;;38.49;31.66;94946.03;5066453;28;20204;-56
2023/08/26 09:23:52;;;;;;;14.15;9.65;;;37.40;49.00;;;38.63;31.36;94946.78;5073182;28;20226;-60
2023/08/26 09:26:19;;;;;;;15.77;12.40;;;37.60;48.40;;;38.74;31.28;94936.28;5070573;28;20291;-58
2023/08/26 09:28:51;;;;;;;22.38;9.82;;;37.80;48.10;;;38.96;31.49;94937.34;5076068;28;20273;-58
2023/08/26 09:31:18;;;;;;;17.52;8.27;;;38.00;48.20;;;39.26;30.64;94932.91;5076418;28;20228;-60
2023/08/26 09:33:50;;;;;;;12.00;8.45;;;38.20;47.20;;;39.59;30.69;94930.53;5075936;28;20722;-57
2023/08/26 09:36:18;;;;;;;12.25;8.95;;;38.50;47.50;;;39.92;29.89;94931.97;5077586;28;20635;-61
2023/08/26 09:38:49;;;;;;;12.43;9.05;;;38.90;47.20;;;40.17;29.69;94930.31;5071648;28;20289;-57
2023/08/26 09:41:21;;;;;;;8.93;8.13;;;39.10;46.40;;;40.33;30.17;94923.16;5076882;28;20203;-61
2023/08/26 09:43:48;;;;;;;15.32;8.85;;;39.30;46.40;;;40.37;29.22;94923.28;5074642;28;20220;-56
2023/08/26 09:46:20;;;;;;;12.23;8.52;;;39.40;45.70;;;40.42;28.91;94922.31;5075457;28;20203;-59
2023/08/26 09:48:48;;;;;;;9.18;8.35;;;39.40;45.40;;;40.48;29.10;94915.50;5072391;28;20220;-58
2023/08/26 09:51:26;;;;;;;17.50;8.77;;;39.50;45.30;;;40.50;28.90;94905.78;5076964;28;20348;-61
2023/08/26 09:53:54;;;;;;;11.10;8.20;;;39.50;44.70;;;40.57;28.18;94913.50;5076416;28;20318;-57
2023/08/26 09:56:24;;;;;;;9.85;8.95;;;39.60;44.30;;;40.50;28.65;94910.47;5073117;28;20611;-58
2023/08/26 09:58:51;;;;;;;9.43;8.57;;;39.60;44.40;;;40.31;28.37;94908.91;5076714;28;20228;-56
2023/08/26 10:01:20;;;;;;;9.63;8.73;;;39.50;44.10;;;40.10;28.54;94907.97;5071485;28;20545;-60
2023/08/26 10:03:50;;;;;;;9.55;8.48;;;39.30;43.70;;;39.94;28.51;94899.38;5074316;28;20534;-61
2023/08/26 10:06:17;;;;;;;9.85;8.82;;;39.20;44.10;;;39.97;28.75;94896.78;5080413;28;20191;-63
2023/08/26 10:08:45;;;;;;;10.23;7.78;;;39.10;44.20;;;40.08;28.63;94897.28;5073901;28;20330;-61
2023/08/26 10:11:12;;;;;;;11.15;8.55;;;39.10;43.80;;;40.06;28.68;94896.00;5076709;28;20208;-61